createdAt,value
2018-03-29T00:00:17.656Z,11.88
2018-03-29T00:02:45.964Z,11.45
2018-03-29T00:05:14.472Z,11.02
2018-03-29T00:07:42.823Z,11.23
2018-03-29T00:10:11.363Z,10.75
2018-03-29T00:12:39.679Z,10.63
2018-03-29T00:15:08.025Z,10.32
2018-03-29T00:17:36.458Z,11.05
2018-03-29T00:20:04.792Z,10.60
2018-03-29T00:22:33.211Z,10.95
2018-03-29T00:25:01.531Z,11.10
2018-03-29T00:27:29.824Z,10.63
2018-03-29T00:29:58.146Z,9.55
2018-03-29T00:32:26.681Z,9.60
2018-03-29T00:35:09.273Z,11.20
2018-03-29T00:37:37.667Z,10.43
2018-03-29T00:40:06.010Z,10.35
2018-03-29T00:42:34.849Z,10.98
2018-03-29T00:45:03.170Z,10.40
2018-03-29T00:47:32.378Z,10.73
2018-03-29T00:50:01.805Z,10.57
2018-03-29T00:52:30.157Z,10.73
2018-03-29T00:54:58.480Z,9.82
2018-03-29T00:57:26.893Z,9.57
2018-03-29T00:59:55.213Z,9.35
2018-03-29T01:02:23.519Z,9.70
2018-03-29T01:04:52.009Z,9.68
2018-03-29T01:07:20.338Z,10.18
2018-03-29T01:09:49.452Z,8.88
2018-03-29T01:12:18.556Z,8.70
2018-03-29T01:14:47.119Z,9.48
2018-03-29T01:17:15.437Z,9.30
2018-03-29T01:19:44.190Z,8.50
2018-03-29T01:22:13.292Z,9.70
2018-03-29T01:24:42.374Z,9.13
2018-03-29T01:27:11.571Z,9.63
2018-03-29T01:29:39.881Z,8.35
2018-03-29T01:32:08.207Z,8.82
2018-03-29T01:34:36.560Z,8.73
2018-03-29T01:37:04.878Z,8.88
2018-03-29T01:39:33.438Z,8.82
2018-03-29T01:42:01.768Z,8.82
2018-03-29T01:44:30.167Z,8.68
2018-03-29T01:46:58.507Z,8.05
2018-03-29T01:49:27.748Z,8.60
2018-03-29T01:51:56.075Z,8.10
2018-03-29T01:54:25.155Z,8.27
2018-03-29T01:56:53.510Z,8.63
2018-03-29T01:59:21.841Z,7.40
2018-03-29T02:01:50.927Z,8.05
2018-03-29T02:04:19.297Z,7.80
2018-03-29T02:06:47.597Z,8.20
2018-03-29T02:09:16.664Z,7.43
2018-03-29T02:11:45.287Z,7.70
2018-03-29T02:14:13.586Z,7.70
2018-03-29T02:16:41.900Z,7.43
2018-03-29T02:19:10.253Z,7.15
2018-03-29T02:21:39.301Z,7.37
2018-03-29T02:24:08.387Z,7.57
2018-03-29T02:26:36.772Z,7.03
2018-03-29T02:29:05.083Z,7.60
2018-03-29T02:31:33.408Z,7.00
2018-03-29T02:34:02.823Z,7.15
2018-03-29T02:36:31.120Z,8.50
2018-03-29T02:39:00.189Z,7.25
2018-03-29T02:41:28.549Z,8.18
2018-03-29T02:43:56.852Z,8.40
2018-03-29T02:46:25.230Z,7.72
2018-03-29T02:48:53.620Z,8.25
2018-03-29T02:51:22.691Z,8.10
2018-03-29T02:53:51.021Z,8.85
2018-03-29T02:56:19.653Z,7.97
2018-03-29T02:58:47.986Z,8.05
2018-03-29T03:01:16.294Z,7.68
2018-03-29T03:03:44.608Z,8.05
2018-03-29T03:06:12.924Z,7.70
2018-03-29T03:08:41.227Z,7.90
2018-03-29T03:11:09.537Z,7.55
2018-03-29T03:13:37.824Z,7.62
2018-03-29T03:16:06.119Z,7.90
2018-03-29T03:18:35.280Z,8.10
2018-03-29T03:21:03.592Z,7.78
2018-03-29T03:23:31.903Z,7.45
2018-03-29T03:26:00.248Z,7.57
2018-03-29T03:28:29.323Z,7.50
2018-03-29T03:30:57.626Z,6.93
2018-03-29T03:33:26.729Z,7.32
2018-03-29T03:35:55.056Z,6.87
2018-03-29T03:38:23.429Z,6.75
2018-03-29T03:40:52.166Z,7.00
2018-03-29T03:43:21.290Z,6.10
2018-03-29T03:45:49.647Z,6.35
2018-03-29T03:48:17.999Z,6.15
2018-03-29T03:50:46.351Z,6.37
2018-03-29T03:53:14.677Z,6.12
2018-03-29T03:55:43.071Z,6.70
2018-03-29T03:58:11.357Z,7.00
2018-03-29T04:00:39.648Z,6.85
2018-03-29T04:03:08.448Z,7.30
2018-03-29T04:05:37.505Z,8.15
2018-03-29T04:08:05.822Z,7.65
2018-03-29T04:10:34.144Z,9.23
2018-03-29T04:13:03.195Z,9.27
2018-03-29T04:15:31.514Z,8.85
2018-03-29T04:18:00.622Z,8.60
2018-03-29T04:20:29.703Z,9.48
2018-03-29T04:22:58.775Z,9.70
2018-03-29T04:25:27.237Z,10.35
2018-03-29T04:27:55.529Z,9.98
2018-03-29T04:30:23.850Z,11.45
2018-03-29T04:32:52.969Z,11.40
2018-03-29T04:35:21.293Z,10.75
2018-03-29T04:37:49.590Z,11.98
2018-03-29T04:40:17.967Z,11.65
2018-03-29T04:42:47.050Z,12.32
2018-03-29T04:45:15.386Z,11.30
2018-03-29T04:47:44.176Z,12.18
2018-03-29T04:50:12.476Z,11.80
2018-03-29T04:52:40.787Z,11.55
2018-03-29T04:55:09.882Z,12.00
2018-03-29T04:57:38.975Z,10.80
2018-03-29T05:00:07.300Z,10.18
2018-03-29T05:02:35.648Z,10.85
2018-03-29T05:05:03.984Z,10.27
2018-03-29T05:07:32.389Z,10.88
2018-03-29T05:10:01.294Z,10.32
2018-03-29T05:12:29.615Z,11.18
2018-03-29T05:14:58.041Z,10.95
2018-03-29T05:17:27.161Z,10.43
2018-03-29T05:19:56.226Z,10.88
2018-03-29T05:22:25.522Z,9.70
2018-03-29T05:24:53.888Z,11.05
2018-03-29T05:27:26.130Z,9.55
2018-03-29T05:29:54.524Z,10.60
2018-03-29T05:32:23.592Z,11.25
2018-03-29T05:34:51.919Z,9.80
2018-03-29T05:37:20.243Z,8.75
2018-03-29T05:39:48.573Z,8.63
2018-03-29T05:42:16.891Z,10.02
2018-03-29T05:44:46.024Z,9.00
2018-03-29T05:47:14.322Z,9.07
2018-03-29T05:49:42.620Z,8.98
2018-03-29T05:52:11.421Z,8.98
2018-03-29T05:54:39.737Z,7.93
2018-03-29T05:57:08.077Z,8.13
2018-03-29T05:59:37.177Z,8.77
2018-03-29T06:02:06.308Z,8.73
2018-03-29T06:04:34.686Z,8.57
2018-03-29T06:07:03.104Z,8.65
2018-03-29T06:09:31.413Z,10.18
2018-03-29T06:11:59.771Z,9.38
2018-03-29T06:14:33.788Z,8.98
2018-03-29T06:17:02.140Z,9.77
2018-03-29T06:19:30.496Z,9.35
2018-03-29T06:21:58.873Z,9.82
2018-03-29T06:24:27.725Z,9.20
2018-03-29T06:26:56.826Z,9.68
2018-03-29T06:29:25.219Z,9.82
2018-03-29T06:31:53.626Z,9.27
2018-03-29T06:34:21.981Z,10.00
2018-03-29T06:36:50.489Z,10.70
2018-03-29T06:39:18.797Z,11.18
2018-03-29T06:41:47.131Z,10.40
2018-03-29T06:44:15.482Z,10.85
2018-03-29T06:46:44.629Z,11.25
2018-03-29T06:49:12.976Z,11.20
2018-03-29T06:51:41.337Z,10.80
2018-03-29T06:54:10.477Z,11.68
2018-03-29T06:56:38.821Z,9.57
2018-03-29T06:59:08.115Z,10.02
2018-03-29T07:01:37.271Z,11.23
2018-03-29T07:04:05.627Z,11.48
2018-03-29T07:06:33.965Z,10.13
2018-03-29T07:09:03.047Z,11.05
2018-03-29T07:11:31.376Z,11.23
2018-03-29T07:13:59.724Z,11.10
2018-03-29T07:16:28.067Z,12.15
2018-03-29T07:18:56.403Z,12.48
2018-03-29T07:21:25.072Z,12.25
2018-03-29T07:23:54.184Z,13.10
2018-03-29T07:26:22.533Z,13.85
2018-03-29T07:28:51.650Z,12.55
2018-03-29T07:31:19.950Z,13.07
2018-03-29T07:33:48.289Z,14.18
2018-03-29T07:36:17.429Z,14.50
2018-03-29T07:38:45.739Z,12.82
2018-03-29T07:41:14.101Z,13.95
2018-03-29T07:43:42.927Z,15.00
2018-03-29T07:46:11.237Z,14.10
2018-03-29T07:48:39.554Z,13.82
2018-03-29T07:51:07.901Z,14.18
2018-03-29T07:53:36.316Z,14.23
2018-03-29T07:56:04.645Z,13.85
2018-03-29T07:58:32.995Z,14.00
2018-03-29T08:01:01.345Z,15.23
2018-03-29T08:03:29.679Z,14.93
2018-03-29T08:05:58.458Z,13.98
2018-03-29T08:08:26.767Z,14.07
2018-03-29T08:10:55.248Z,13.25
2018-03-29T08:13:23.621Z,13.05
2018-03-29T08:15:51.963Z,12.30
2018-03-29T08:18:20.319Z,12.55
2018-03-29T08:20:48.712Z,12.40
2018-03-29T08:23:17.061Z,12.50
2018-03-29T08:25:45.392Z,11.65
2018-03-29T08:28:14.716Z,10.60
2018-03-29T08:30:43.146Z,10.90
2018-03-29T08:33:11.515Z,10.15
2018-03-29T08:35:39.849Z,10.38
2018-03-29T08:38:08.203Z,9.25
2018-03-29T08:40:37.320Z,9.90
2018-03-29T08:43:05.693Z,9.85
2018-03-29T08:45:34.065Z,8.38
2018-03-29T08:48:02.386Z,9.02
2018-03-29T08:50:30.829Z,8.88
2018-03-29T08:52:59.197Z,9.02
2018-03-29T08:55:28.308Z,7.80
2018-03-29T08:57:56.654Z,8.70
2018-03-29T09:00:25.009Z,7.70
2018-03-29T09:02:53.365Z,7.90
2018-03-29T09:05:21.747Z,7.85
2018-03-29T09:07:50.129Z,8.80
2018-03-29T09:10:18.471Z,8.45
2018-03-29T09:12:46.981Z,8.70
2018-03-29T09:15:15.314Z,8.70
2018-03-29T09:17:43.621Z,8.73
2018-03-29T09:20:11.999Z,8.13
2018-03-29T09:22:40.389Z,9.05
2018-03-29T09:25:09.193Z,8.55
2018-03-29T09:27:37.548Z,8.02
2018-03-29T09:30:05.879Z,9.23
2018-03-29T09:32:34.232Z,8.30
2018-03-29T09:35:02.743Z,8.25
2018-03-29T09:37:31.066Z,8.07
2018-03-29T09:39:59.394Z,8.25
2018-03-29T09:42:27.770Z,8.05
2018-03-29T09:44:56.094Z,8.75
2018-03-29T09:47:25.186Z,7.53
2018-03-29T09:49:53.529Z,8.57
2018-03-29T09:52:21.845Z,8.18
2018-03-29T09:54:50.927Z,8.05
2018-03-29T09:57:20.400Z,7.82
2018-03-29T09:59:48.805Z,8.88
2018-03-29T10:02:19.067Z,8.27
2018-03-29T10:04:53.004Z,8.30
2018-03-29T10:07:39.948Z,8.35
2018-03-29T10:10:08.309Z,8.95
2018-03-29T10:12:36.644Z,8.70
2018-03-29T10:15:04.995Z,9.27
2018-03-29T10:17:34.612Z,9.00
2018-03-29T10:20:03.726Z,9.10
2018-03-29T10:22:32.049Z,9.85
2018-03-29T10:25:00.409Z,9.55
2018-03-29T10:27:28.768Z,10.07
2018-03-29T10:29:57.113Z,9.90
2018-03-29T10:32:26.242Z,9.68
2018-03-29T10:34:54.570Z,10.40
2018-03-29T10:37:23.051Z,11.10
2018-03-29T10:39:51.557Z,11.00
2018-03-29T10:42:19.983Z,10.60
2018-03-29T10:47:22.895Z,10.73
2018-03-29T10:49:51.229Z,9.90
2018-03-29T10:52:19.586Z,10.53
2018-03-29T10:54:47.975Z,11.37
2018-03-29T10:57:16.332Z,11.60
2018-03-29T10:59:44.704Z,10.73
2018-03-29T11:02:13.418Z,11.30
2018-03-29T11:04:41.831Z,10.97
2018-03-29T11:07:10.157Z,11.47
2018-03-29T11:09:38.509Z,11.10
2018-03-29T11:12:06.859Z,10.53
2018-03-29T11:14:35.225Z,12.50
2018-03-29T11:17:04.383Z,11.97
2018-03-29T11:19:33.559Z,10.67
2018-03-29T11:22:01.888Z,11.47
2018-03-29T11:24:30.527Z,10.70
2018-03-29T11:26:59.029Z,11.67
2018-03-29T11:29:27.775Z,11.77
2018-03-29T11:31:56.140Z,12.13
2018-03-29T11:34:24.505Z,10.63
2018-03-29T11:36:52.866Z,10.03
2018-03-29T11:39:21.219Z,9.90
2018-03-29T11:41:49.570Z,8.73
2018-03-29T11:44:17.908Z,10.60
2018-03-29T11:46:46.388Z,9.40
2018-03-29T11:49:14.785Z,8.50
2018-03-29T11:51:43.954Z,10.13
2018-03-29T11:54:12.344Z,8.97
2018-03-29T11:59:15.292Z,9.60
2018-03-29T12:01:43.684Z,10.40
2018-03-29T12:04:12.091Z,10.67
2018-03-29T12:06:40.663Z,11.03
2018-03-29T12:09:09.099Z,11.20
2018-03-29T12:11:38.186Z,11.67
2018-03-29T12:14:07.311Z,11.73
2018-03-29T12:16:35.661Z,11.50
2018-03-29T12:19:04.764Z,11.70
2018-03-29T12:21:33.149Z,12.03
2018-03-29T12:24:01.536Z,13.40
2018-03-29T12:26:29.945Z,11.63
2018-03-29T12:28:58.695Z,11.27
2018-03-29T12:31:27.095Z,11.53
2018-03-29T12:33:55.438Z,10.87
2018-03-29T12:36:24.606Z,10.40
2018-03-29T12:38:52.950Z,11.83
2018-03-29T12:41:21.295Z,9.77
2018-03-29T12:43:49.679Z,10.10
2018-03-29T12:46:18.797Z,10.13
2018-03-29T12:48:47.128Z,9.30
2018-03-29T12:51:15.567Z,9.30
2018-03-29T12:53:44.244Z,8.53
2018-03-29T12:59:22.157Z,8.33
2018-03-29T13:01:51.292Z,8.53
2018-03-29T13:04:19.795Z,7.80
2018-03-29T13:06:48.205Z,8.40
2018-03-29T13:09:17.510Z,8.50
2018-03-29T13:11:46.605Z,7.77
2018-03-29T13:14:15.814Z,7.23
2018-03-29T13:16:44.220Z,7.70
2018-03-29T13:19:12.553Z,7.80
2018-03-29T13:21:40.864Z,8.47
2018-03-29T13:24:09.230Z,7.63
2018-03-29T13:26:37.606Z,8.53
2018-03-29T13:29:05.996Z,7.20
2018-03-29T13:31:34.454Z,8.90
2018-03-29T13:34:02.801Z,7.70
2018-03-29T13:36:31.270Z,8.17
2018-03-29T13:38:59.641Z,7.07
2018-03-29T13:41:27.988Z,8.07
2018-03-29T13:43:57.217Z,7.63
2018-03-29T13:46:25.615Z,8.97
2018-03-29T13:48:53.994Z,8.80
2018-03-29T13:51:22.389Z,8.80
2018-03-29T13:53:51.274Z,8.33
2018-03-29T13:56:19.693Z,8.33
2018-03-29T13:58:48.094Z,8.43
2018-03-29T14:01:16.537Z,8.17
2018-03-29T14:03:44.892Z,8.77
2018-03-29T14:06:13.255Z,7.13
2018-03-29T14:08:41.638Z,7.23
2018-03-29T14:11:09.980Z,7.00
2018-03-29T14:13:38.339Z,6.20
2018-03-29T14:16:07.639Z,6.47
2018-03-29T14:18:35.986Z,6.30
2018-03-29T14:21:04.451Z,7.10
2018-03-29T14:23:32.865Z,5.90
2018-03-29T14:26:01.233Z,6.50
2018-03-29T14:28:29.550Z,6.13
2018-03-29T14:30:58.277Z,6.53
2018-03-29T14:33:26.611Z,7.00
2018-03-29T14:35:54.926Z,7.30
2018-03-29T14:38:23.407Z,8.60
2018-03-29T14:40:51.850Z,9.10
2018-03-29T14:43:20.963Z,10.07
2018-03-29T14:45:49.368Z,8.43
2018-03-29T14:48:17.699Z,8.00
2018-03-29T14:50:46.026Z,9.40
2018-03-29T14:53:14.509Z,8.67
2018-03-29T14:55:42.927Z,7.93
2018-03-29T14:58:11.312Z,8.90
2018-03-29T15:00:41.097Z,7.13
2018-03-29T15:03:09.409Z,7.50
2018-03-29T15:05:37.745Z,8.40
2018-03-29T15:08:06.592Z,9.00
2018-03-29T15:10:34.995Z,8.47
2018-03-29T15:13:03.358Z,9.00
2018-03-29T15:15:31.761Z,10.00
2018-03-29T15:18:00.110Z,9.23
2018-03-29T15:20:28.454Z,9.17
2018-03-29T15:22:56.892Z,9.53
2018-03-29T15:25:25.241Z,9.67
2018-03-29T15:27:53.587Z,7.90
2018-03-29T15:30:21.934Z,9.33
2018-03-29T15:32:50.723Z,8.50
2018-03-29T15:35:19.087Z,9.40
2018-03-29T15:37:47.445Z,11.30
2018-03-29T15:40:16.536Z,9.87
2018-03-29T15:42:45.693Z,11.67
2018-03-29T15:45:14.178Z,10.80
2018-03-29T15:47:42.488Z,10.50
2018-03-29T15:50:10.849Z,10.03
2018-03-29T15:52:39.255Z,9.70
2018-03-29T15:55:07.606Z,9.57
2018-03-29T15:57:35.980Z,10.07
2018-03-29T16:00:04.357Z,9.70
2018-03-29T16:02:32.746Z,9.00
2018-03-29T16:05:01.116Z,8.80
2018-03-29T16:07:29.580Z,9.87
2018-03-29T16:09:57.947Z,9.33
2018-03-29T16:12:26.351Z,10.50
2018-03-29T16:14:54.739Z,9.60
2018-03-29T16:17:23.101Z,9.97
2018-03-29T16:19:51.449Z,11.43
2018-03-29T16:22:19.806Z,11.50
2018-03-29T16:24:48.924Z,10.70
2018-03-29T16:27:17.258Z,10.83
2018-03-29T16:29:45.726Z,11.47
2018-03-29T16:32:14.059Z,11.40
2018-03-29T16:34:42.576Z,10.43
2018-03-29T16:37:10.953Z,11.63
2018-03-29T16:39:39.334Z,11.10
2018-03-29T16:42:07.655Z,11.73
2018-03-29T16:44:36.006Z,11.47
2018-03-29T16:47:04.392Z,12.43
2018-03-29T16:49:32.760Z,11.63
2018-03-29T16:52:01.257Z,11.70
2018-03-29T16:54:29.586Z,11.30
2018-03-29T16:56:57.901Z,11.83
2018-03-29T16:59:26.295Z,11.73
2018-03-29T17:01:54.647Z,11.90
2018-03-29T17:04:23.000Z,12.40
2018-03-29T17:06:51.376Z,11.83
2018-03-29T17:09:19.889Z,11.70
2018-03-29T17:11:48.346Z,11.47
2018-03-29T17:14:16.774Z,13.30
2018-03-29T17:16:45.114Z,13.37
2018-03-29T17:19:13.436Z,13.40
2018-03-29T17:21:41.785Z,12.83
2018-03-29T17:24:10.135Z,12.40
2018-03-29T17:26:38.489Z,12.97
2018-03-29T17:29:06.847Z,12.00
2018-03-29T17:31:35.158Z,13.03
2018-03-29T17:34:04.230Z,11.70
2018-03-29T17:36:33.047Z,11.90
2018-03-29T17:39:01.421Z,12.73
2018-03-29T17:41:30.504Z,13.27
2018-03-29T17:43:59.645Z,13.40
2018-03-29T17:46:28.987Z,13.50
2018-03-29T17:48:57.294Z,15.00
2018-03-29T17:51:26.465Z,13.80
2018-03-29T17:53:54.814Z,13.60
2018-03-29T17:56:23.142Z,15.33
2018-03-29T17:58:52.680Z,13.87
2018-03-29T18:01:21.064Z,13.60
2018-03-29T18:03:49.406Z,14.33
2018-03-29T18:06:17.781Z,14.57
2018-03-29T18:08:47.056Z,15.20
2018-03-29T18:11:15.401Z,15.27
2018-03-29T18:13:43.757Z,17.27
2018-03-29T18:16:12.152Z,14.77
2018-03-29T18:18:40.491Z,17.43
2018-03-29T18:21:09.683Z,14.97
2018-03-29T18:23:38.038Z,15.17
2018-03-29T18:26:06.422Z,14.70
2018-03-29T18:28:34.764Z,15.90
2018-03-29T18:31:03.066Z,14.27
2018-03-29T18:33:31.413Z,14.60
2018-03-29T18:35:59.824Z,14.63
2018-03-29T18:38:28.164Z,14.33
2018-03-29T18:40:56.500Z,14.47
2018-03-29T18:43:25.363Z,13.80
2018-03-29T18:45:54.424Z,14.93
2018-03-29T18:48:22.757Z,14.30
2018-03-29T18:50:51.149Z,15.80
2018-03-29T18:53:19.507Z,14.40
2018-03-29T18:55:48.794Z,16.20
2018-03-29T18:58:17.141Z,18.00
2018-03-29T19:00:45.498Z,21.27
2018-03-29T19:03:13.851Z,23.80
2018-03-29T19:05:42.302Z,23.50
2018-03-29T19:08:10.642Z,25.12
2018-03-29T19:10:40.566Z,25.98
2018-03-29T19:13:09.704Z,26.33
2018-03-29T19:15:38.070Z,26.00
2018-03-29T19:18:06.410Z,27.17
2018-03-29T19:20:35.589Z,25.50
2018-03-29T19:23:03.961Z,28.55
2018-03-29T19:25:32.301Z,27.08
2018-03-29T19:28:00.917Z,28.65
2018-03-29T19:30:30.556Z,27.73
2018-03-29T19:32:59.097Z,29.30
2018-03-29T19:35:27.571Z,29.75
2018-03-29T19:37:56.042Z,28.85
2018-03-29T19:40:25.064Z,28.45
2018-03-29T19:42:53.635Z,28.52
2018-03-29T19:45:22.362Z,29.45
2018-03-29T19:47:50.941Z,28.90
2018-03-29T19:50:20.608Z,28.00
2018-03-29T19:52:49.228Z,28.62
2018-03-29T19:55:18.410Z,29.30
2018-03-29T19:57:46.835Z,28.58
2018-03-29T20:00:16.978Z,29.55
2018-03-29T20:02:45.350Z,28.52
2018-03-29T20:05:13.721Z,28.60
2018-03-29T20:07:42.825Z,31.23
2018-03-29T20:10:11.133Z,31.12
2018-03-29T20:12:39.589Z,33.10
2018-03-29T20:15:08.158Z,32.75
2018-03-29T20:17:37.274Z,32.28
2018-03-29T20:20:05.645Z,32.75
2018-03-29T20:22:34.007Z,31.50
2018-03-29T20:25:02.373Z,32.50
2018-03-29T20:27:30.732Z,52.65
2018-03-29T20:29:59.058Z,33.28
2018-03-29T20:32:27.399Z,31.55
2018-03-29T20:34:56.089Z,31.27
2018-03-29T20:37:24.431Z,31.77
2018-03-29T20:39:52.758Z,30.42
2018-03-29T20:42:21.147Z,27.55
2018-03-29T20:44:50.248Z,28.75
2018-03-29T20:47:18.904Z,28.58
2018-03-29T20:49:47.251Z,29.55
2018-03-29T20:52:15.595Z,30.75
2018-03-29T20:54:43.942Z,31.25
2018-03-29T20:57:12.655Z,31.83
2018-03-29T20:59:41.017Z,32.40
2018-03-29T21:02:09.375Z,31.85
2018-03-29T21:04:37.803Z,31.85
2018-03-29T21:07:06.161Z,33.13
2018-03-29T21:09:34.610Z,33.17
2018-03-29T21:12:02.977Z,32.10
2018-03-29T21:14:31.296Z,32.58
2018-03-29T21:16:59.628Z,30.80
2018-03-29T21:19:28.093Z,32.10
2018-03-29T21:21:56.434Z,32.35
2018-03-29T21:24:25.577Z,35.40
2018-03-29T21:26:53.978Z,34.17
2018-03-29T21:29:22.345Z,31.45
2018-03-29T21:31:50.749Z,34.97
2018-03-29T21:34:19.137Z,33.45
2018-03-29T21:36:47.504Z,34.95
2018-03-29T21:39:15.910Z,34.70
2018-03-29T21:41:44.342Z,34.60
2018-03-29T21:44:12.694Z,33.75
2018-03-29T21:46:41.047Z,34.85
2018-03-29T21:49:09.476Z,34.80
2018-03-29T21:51:37.787Z,37.38
2018-03-29T21:54:06.124Z,35.30
2018-03-29T21:56:34.504Z,35.15
2018-03-29T21:59:02.919Z,34.22
2018-03-29T22:01:31.229Z,35.15
2018-03-29T22:04:00.467Z,34.15
2018-03-29T22:06:28.825Z,34.80
2018-03-29T22:08:57.158Z,34.55
2018-03-29T22:11:25.515Z,34.60
2018-03-29T22:13:53.840Z,33.30
2018-03-29T22:16:22.136Z,33.47
2018-03-29T22:18:50.571Z,33.42
2018-03-29T22:21:20.574Z,35.65
2018-03-29T22:23:48.885Z,29.15
2018-03-29T22:26:17.532Z,26.85
2018-03-29T22:28:46.222Z,23.02
2018-03-29T22:31:14.533Z,23.00
2018-03-29T22:33:43.165Z,21.05
2018-03-29T22:36:14.441Z,23.83
2018-03-29T22:38:43.573Z,22.87
2018-03-29T22:41:12.041Z,21.10
2018-03-29T22:43:43.634Z,25.23
2018-03-29T22:46:12.717Z,22.67
2018-03-29T22:48:41.264Z,25.37
2018-03-29T22:51:09.608Z,23.30
2018-03-29T22:53:37.922Z,23.58
2018-03-29T22:56:06.275Z,25.00
2018-03-29T22:58:34.600Z,23.83
2018-03-29T23:01:02.981Z,26.48
2018-03-29T23:03:31.341Z,26.00
2018-03-29T23:05:59.794Z,29.33
2018-03-29T23:08:28.118Z,28.05
2018-03-29T23:10:56.533Z,30.70
2018-03-29T23:13:25.049Z,28.77
2018-03-29T23:15:53.374Z,28.50
2018-03-29T23:18:22.485Z,28.83
2018-03-29T23:20:50.816Z,29.80
2018-03-29T23:23:19.529Z,29.45
2018-03-29T23:25:48.683Z,32.65
2018-03-29T23:28:17.001Z,32.67
2018-03-29T23:30:45.369Z,31.65
2018-03-29T23:33:14.217Z,30.15
2018-03-29T23:35:42.548Z,32.70
2018-03-29T23:38:10.889Z,30.80
2018-03-29T23:40:39.242Z,30.55
2018-03-29T23:43:07.813Z,32.10
2018-03-29T23:45:36.196Z,31.02
2018-03-29T23:48:04.583Z,34.25
2018-03-29T23:50:32.929Z,33.38
2018-03-29T23:53:01.252Z,33.85
2018-03-29T23:55:29.684Z,34.85
2018-03-29T23:58:15.671Z,33.20
